Terminal Aerodrome Forecast
Issued by NWS Pittsburgh, PA

Current Version | Previous Version | Graphics & Text | Print | Product List | Glossary On
Versions: 1 2 3 4 5 6 7 8 9 10 11 12 13 14 15 16 17 18 19 20 21 22 23 24 25 26 27 28 29
000
FTUS41 KPBZ 110536
TAFPIT
TAF
KPIT 110536Z 1106/1212 24006KT P6SM BKN035
     FM111400 20005KT P6SM SCT025 BKN080
     FM120800 24006KT P6SM -SN OVC045
     FM121100 26008KT 5SM -SHSN OVC015=

USA.gov is the U.S. government's official web portal to all federal, state and local government web resources and services.